Bei Facebook empfehlenBei Twitter postenGoogle plusPinterest

Das Wetter im Erzgebirge am 26.11.2015

Wetter und Klima am 26.11.2015 Holzhau im Erzgebirge (630m ü.NN)
Letzte gemessene Temperatur und Uhrzeit der Messung23:45:00 Uhr-0.40 °C
Temperatur (Maximum / Höchstwert) und Uhrzeit der Messung13:30:00 Uhr1.10 °C
Temperatur (Minimum / Tiefstwert) und Uhrzeit der Messung07:00:00-0.70 °C
Errechneter Absolutwert der Temperaturschwankungen zwischen Tmin und Tmax des Tages1.80 K
Errechnete Tagesmitteltemperatur0.14063 °C
Gesamt - Niederschlag des Tages (in flüssiger Form)0.00 Liter / m²
Luftdruck (Maximum / Höchstwert) und Zeitpunkt der Messung23:30:00 Uhr1015.10 hPa
Luftdruck (Minimum / Tiefstwert) und Zeitpunkt der Messung00:45:00 Uhr1002.20 hPa
Errechneter Absolutwert der Luftdruckschwankungen des Tages12.90 hPa
Höchste gemessene Windgeschwindigkeit und Uhrzeit der Messung10:30:00 Uhr5.76 km/h
Errechnete Windhäufigkeit in Relation zu den Messwerten des Tages2.08333 %
Niedrigste Windkühle (Windchill) und Zeitpunkt der Messung10:30:00 Uhr-1.00 °C
Taupunkt (Maximum / Höchstwert) und Uhrzeit der Messung13:30:00 Uhr0.40 °C
Taupunkt (Minimum / Tiefstwert) und Uhrzeit der Messung07:00:00-1.80 °C
Anzahl der automatisch eingelesenen Messwerte 96

Detaillierte Wetter- und Klima- Messwerte für den 26.11.2015 in Holzhau im Erzgebirge (630m ü.NN)
ZeitTemperaturLuftdruckRel. LuftfeuchteWindWindrichtungWindchillTaupunktNiederschlag l/m²
23:45:00-0.40 °C1015.00 hPa95.00 %-1.20 °C 
23:30:00-0.50 °C1015.10 hPa95.00 %-1.30 °C 
23:15:00-0.40 °C1014.90 hPa95.00 %-1.20 °C 
23:00:00-0.40 °C1015.00 hPa95.00 %-1.20 °C 
22:45:00-0.40 °C1014.80 hPa95.00 %-1.20 °C 
22:30:00-0.40 °C1014.90 hPa95.00 %-1.20 °C 
22:15:00-0.20 °C1014.80 hPa95.00 %-1.00 °C 
22:00:00-0.20 °C1014.80 hPa95.00 %-1.00 °C 
21:45:00-0.20 °C1014.80 hPa95.00 %-1.00 °C 
21:30:00-0.20 °C1014.80 hPa95.00 %-1.00 °C 
21:15:00-0.20 °C1014.60 hPa95.00 %-1.00 °C 
21:00:00-0.20 °C1014.70 hPa95.00 %-1.00 °C 
20:45:00-0.20 °C1014.50 hPa95.00 %-1.00 °C 
20:30:00-0.10 °C1014.50 hPa95.00 %-0.90 °C 
20:15:00-0.10 °C1014.30 hPa95.00 %-0.90 °C 
20:00:00-0.10 °C1014.30 hPa95.00 %-0.90 °C 
19:45:00-0.10 °C1014.00 hPa95.00 %-0.90 °C 
19:30:000.10 °C1013.80 hPa95.00 %-0.60 °C 
19:15:000.20 °C1013.70 hPa95.00 %-0.50 °C 
19:00:000.30 °C1013.50 hPa95.00 %-0.40 °C 
18:45:000.40 °C1013.10 hPa95.00 %-0.30 °C 
18:30:000.40 °C1013.10 hPa95.00 %-0.30 °C 
18:15:000.40 °C1013.00 hPa95.00 %-0.30 °C 
18:00:000.40 °C1012.70 hPa95.00 %-0.30 °C 
17:45:000.40 °C1012.50 hPa94.00 %-0.50 °C 
17:30:000.30 °C1012.30 hPa94.00 %-0.50 °C 
17:15:000.30 °C1012.30 hPa94.00 %-0.50 °C 
17:00:000.20 °C1012.00 hPa94.00 %-0.60 °C 
16:45:000.30 °C1011.80 hPa94.00 %-0.50 °C 
16:30:000.40 °C1011.50 hPa94.00 %-0.50 °C 
16:15:000.60 °C1011.30 hPa94.00 %-0.30 °C 
16:00:000.90 °C1011.20 hPa95.00 %0.20 °C 
15:45:000.90 °C1011.00 hPa95.00 %0.20 °C 
15:30:000.80 °C1010.90 hPa95.00 %0.10 °C 
15:15:000.80 °C1010.60 hPa95.00 %0.10 °C 
15:00:000.80 °C1010.50 hPa95.00 %0.10 °C 
14:45:000.70 °C1010.20 hPa94.00 %-0.20 °C 
14:30:000.70 °C1010.10 hPa94.00 %-0.20 °C 
14:15:000.60 °C1009.90 hPa94.00 %-0.30 °C 
14:00:000.60 °C1009.70 hPa94.00 %-0.30 °C 
13:45:000.80 °C1009.70 hPa94.00 %-0.10 °C 
13:30:001.10 °C1009.50 hPa95.00 %0.40 °C 
13:15:000.90 °C1009.20 hPa94.00 %0.00 °C 
13:00:001.10 °C1009.00 hPa95.00 %0.40 °C 
12:45:001.00 °C1009.00 hPa94.00 %0.10 °C 
12:30:001.10 °C1008.90 hPa94.00 %0.20 °C 
12:15:000.90 °C1008.80 hPa94.00 %0.00 °C 
12:00:000.90 °C1008.70 hPa94.00 %0.00 °C 
11:45:000.90 °C1008.30 hPa94.00 %0.00 °C 
11:30:000.80 °C1008.30 hPa94.00 %-0.10 °C 
11:15:000.80 °C1008.20 hPa94.00 %-0.10 °C 
11:00:000.90 °C1007.90 hPa94.00 %0.00 °C 
10:45:000.90 °C1007.90 hPa94.00 %0.00 °C 
10:30:000.80 °C1007.90 hPa94.00 %5.76 km/hWSW-1.00 °C-0.10 °C 
10:15:000.50 °C1007.60 hPa94.00 %-0.40 °C 
10:00:000.40 °C1007.40 hPa94.00 %3.96 km/hWNW0.40 °C-0.50 °C 
09:45:000.40 °C1006.90 hPa94.00 %-0.50 °C 
09:30:000.40 °C1006.80 hPa94.00 %-0.50 °C 
09:15:000.30 °C1006.70 hPa94.00 %-0.50 °C 
09:00:000.10 °C1006.30 hPa94.00 %-0.70 °C 
08:45:00-0.10 °C1006.20 hPa94.00 %-1.00 °C 
08:30:00-0.10 °C1006.10 hPa94.00 %-1.00 °C 
08:15:00-0.20 °C1005.90 hPa94.00 %-1.10 °C 
08:00:00-0.30 °C1005.80 hPa94.00 %-1.20 °C 
07:45:00-0.40 °C1005.50 hPa94.00 %-1.30 °C 
07:30:00-0.50 °C1005.40 hPa93.00 %-1.60 °C 
07:15:00-0.60 °C1005.20 hPa93.00 %-1.70 °C 
07:00:00-0.70 °C1004.80 hPa93.00 %-1.80 °C 
06:45:00-0.70 °C1004.90 hPa93.00 %-1.80 °C 
06:30:00-0.70 °C1004.70 hPa93.00 %-1.80 °C 
06:15:00-0.70 °C1004.40 hPa93.00 %-1.80 °C 
06:00:00-0.60 °C1004.30 hPa93.00 %-1.70 °C 
05:45:00-0.40 °C1004.10 hPa93.00 %-1.50 °C 
05:30:00-0.40 °C1003.90 hPa93.00 %-1.50 °C 
05:15:00-0.40 °C1003.70 hPa93.00 %-1.50 °C 
05:00:00-0.20 °C1003.50 hPa93.00 %-1.30 °C 
04:45:00-0.20 °C1003.70 hPa93.00 %-1.30 °C 
04:30:00-0.20 °C1003.40 hPa93.00 %-1.30 °C 
04:15:00-0.20 °C1003.40 hPa93.00 %-1.30 °C 
04:00:00-0.20 °C1003.10 hPa93.00 %-1.30 °C 
03:45:00-0.20 °C1003.10 hPa93.00 %-1.30 °C 
03:30:00-0.20 °C1002.90 hPa93.00 %-1.30 °C 
03:15:00-0.20 °C1003.20 hPa93.00 %-1.30 °C 
03:00:00-0.20 °C1003.10 hPa93.00 %-1.30 °C 
02:45:00-0.20 °C1003.10 hPa93.00 %-1.30 °C 
02:30:00-0.10 °C1003.10 hPa93.00 %-1.20 °C 
02:15:00-0.10 °C1002.90 hPa93.00 %-1.20 °C 
02:00:00-0.10 °C1002.70 hPa93.00 %-1.20 °C 
01:45:00-0.10 °C1002.60 hPa93.00 %-1.20 °C 
01:30:00-0.10 °C1002.40 hPa92.00 %-1.40 °C 
01:15:000.10 °C1002.40 hPa92.00 %-1.00 °C 
01:00:000.10 °C1002.50 hPa92.00 %-1.00 °C 
00:45:000.10 °C1002.20 hPa92.00 %-1.00 °C 
00:30:000.10 °C1002.20 hPa92.00 %-1.00 °C 
00:15:000.10 °C1002.30 hPa92.00 %-1.00 °C 
00:00:000.10 °C1002.20 hPa92.00 %-1.00 °C 

Permanenter Link zu dieser Seite: Wetter im Erzgebirge am 26.11.2015
Performance-Info: Die Erstellung der Seite / Statistik(en) / Tabelle(n) erforderte 5 Datenbankserver-Abfrage(n) und dauerte 69 Millisekunden. (Dieser Messwert ist von der Gesamt-Auslastung des Servers abhängig.)
Erzgebirge - Wetter | Erzgebirge - Wetter (Mobilgeräte) | Komplette Klimadatenbank